KLEX Airport Diagram

We have created a template for each of the higher traffic airports in the vZID airspace. They include KCMH, KCRW, KCVG, KDAY, KIND, KLEX and KSDF. You wil find usefull information including the airport diagram, weather, and specific airport procedures.

KLEX Weather

[Source: ADDS]
METAR
KLEX 172154Z AUTO 24009KT 10SM SCT035 SCT060 BKN075 31/22 A2995 RMK AO2 SLP130 T03060222 =
KLEX 172154Z 1722/1818 24010KT P6SM VCTS SCT025CB BKN040 TEMPO 1722/1724 VRB15G25KT 2SM TSRA BKN025CB FM180400 23005KT P6SM SCT050 FM180800 VRB03KT 3SM BR SCT012 TEMPO 1810/1813 1SM BR BKN012 FM181300 23005KT P6SM SCT025
TAF
KLEX 172154Z 1722/1818 24010KT P6SM VCTS SCT025CB BKN040 TEMPO 1722/1724 VRB15G25KT 2SM TSRA BKN025CB FM180400 23005KT P6SM SCT050 FM180800 VRB03KT 3SM BR SCT012 TEMPO 1810/1813 1SM BR BKN012 FM181300 23005KT P6SM SCT025 =

KLEX Operations

Calm wind runway at KLEX is Runway 22, up to and including 10kts.

Default scenery shows Runway 8/26, which crosses Runway 22. When taxiing to Runway 22, clearance to cross Runway 26 not required.

Updated scenery available at www.flightsim.com.

 

JSN Epic template designed by JoomlaShine.com